sensor_id;sensor_type;location;lat;lon;timestamp;P1;durP1;ratioP1;P2;durP2;ratioP2
10725;SDS011;5414;59.782;16.378;2023-02-08T00:00:39;14.33;;;4.53;;
10725;SDS011;5414;59.782;16.378;2023-02-08T00:03:05;11.80;;;4.50;;
10725;SDS011;5414;59.782;16.378;2023-02-08T00:05:31;14.40;;;5.03;;
10725;SDS011;5414;59.782;16.378;2023-02-08T00:07:57;12.40;;;4.60;;
10725;SDS011;5414;59.782;16.378;2023-02-08T00:10:23;15.60;;;4.80;;
10725;SDS011;5414;59.782;16.378;2023-02-08T00:12:49;16.13;;;4.80;;
10725;SDS011;5414;59.782;16.378;2023-02-08T00:15:19;15.57;;;4.73;;
10725;SDS011;5414;59.782;16.378;2023-02-08T00:17:45;12.93;;;4.43;;
10725;SDS011;5414;59.782;16.378;2023-02-08T00:20:11;13.00;;;4.47;;
10725;SDS011;5414;59.782;16.378;2023-02-08T00:22:38;9.00;;;4.17;;
10725;SDS011;5414;59.782;16.378;2023-02-08T00:25:05;14.50;;;4.73;;
10725;SDS011;5414;59.782;16.378;2023-02-08T00:27:31;11.90;;;4.57;;
10725;SDS011;5414;59.782;16.378;2023-02-08T00:29:57;14.37;;;4.57;;
10725;SDS011;5414;59.782;16.378;2023-02-08T00:32:23;15.47;;;4.80;;
10725;SDS011;5414;59.782;16.378;2023-02-08T00:34:49;10.20;;;4.10;;
10725;SDS011;5414;59.782;16.378;2023-02-08T00:37:15;16.33;;;4.87;;
10725;SDS011;5414;59.782;16.378;2023-02-08T00:39:43;13.50;;;4.90;;
10725;SDS011;5414;59.782;16.378;2023-02-08T00:42:09;12.57;;;3.90;;
10725;SDS011;5414;59.782;16.378;2023-02-08T00:44:35;9.60;;;4.13;;
10725;SDS011;5414;59.782;16.378;2023-02-08T00:47:01;8.10;;;3.80;;
10725;SDS011;5414;59.782;16.378;2023-02-08T00:49:27;12.60;;;4.00;;
10725;SDS011;5414;59.782;16.378;2023-02-08T00:51:53;18.40;;;4.60;;
10725;SDS011;5414;59.782;16.378;2023-02-08T00:54:19;17.53;;;5.50;;
10725;SDS011;5414;59.782;16.378;2023-02-08T00:56:46;13.37;;;4.20;;
10725;SDS011;5414;59.782;16.378;2023-02-08T00:59:12;11.57;;;4.20;;
10725;SDS011;5414;59.782;16.378;2023-02-08T01:01:38;13.97;;;4.20;;
10725;SDS011;5414;59.782;16.378;2023-02-08T01:04:05;12.53;;;4.10;;
10725;SDS011;5414;59.782;16.378;2023-02-08T01:06:31;15.77;;;4.53;;
10725;SDS011;5414;59.782;16.378;2023-02-08T01:08:57;10.40;;;4.67;;
10725;SDS011;5414;59.782;16.378;2023-02-08T01:11:24;12.63;;;4.47;;
10725;SDS011;5414;59.782;16.378;2023-02-08T01:13:50;13.27;;;3.93;;
10725;SDS011;5414;59.782;16.378;2023-02-08T01:16:22;15.90;;;5.60;;
10725;SDS011;5414;59.782;16.378;2023-02-08T01:18:50;14.57;;;4.57;;
10725;SDS011;5414;59.782;16.378;2023-02-08T01:21:17;13.50;;;4.77;;
10725;SDS011;5414;59.782;16.378;2023-02-08T01:23:44;16.40;;;5.00;;
10725;SDS011;5414;59.782;16.378;2023-02-08T01:26:10;10.77;;;3.93;;
10725;SDS011;5414;59.782;16.378;2023-02-08T01:28:36;10.57;;;4.10;;
10725;SDS011;5414;59.782;16.378;2023-02-08T01:31:06;10.53;;;4.37;;
10725;SDS011;5414;59.782;16.378;2023-02-08T01:33:33;12.47;;;4.30;;
10725;SDS011;5414;59.782;16.378;2023-02-08T01:35:59;14.23;;;4.90;;
10725;SDS011;5414;59.782;16.378;2023-02-08T01:38:25;15.27;;;4.17;;
10725;SDS011;5414;59.782;16.378;2023-02-08T01:40:51;12.33;;;4.90;;
10725;SDS011;5414;59.782;16.378;2023-02-08T01:43:19;13.63;;;4.80;;
10725;SDS011;5414;59.782;16.378;2023-02-08T01:45:46;8.50;;;3.80;;
10725;SDS011;5414;59.782;16.378;2023-02-08T01:48:14;9.27;;;4.33;;
10725;SDS011;5414;59.782;16.378;2023-02-08T01:50:45;14.00;;;4.37;;
10725;SDS011;5414;59.782;16.378;2023-02-08T01:53:12;14.40;;;4.60;;
10725;SDS011;5414;59.782;16.378;2023-02-08T01:55:41;11.57;;;4.60;;
10725;SDS011;5414;59.782;16.378;2023-02-08T01:58:08;11.87;;;4.60;;
10725;SDS011;5414;59.782;16.378;2023-02-08T02:00:34;10.07;;;5.10;;
10725;SDS011;5414;59.782;16.378;2023-02-08T02:03:02;12.03;;;4.53;;
10725;SDS011;5414;59.782;16.378;2023-02-08T02:05:31;11.97;;;4.17;;
10725;SDS011;5414;59.782;16.378;2023-02-08T02:08:00;12.53;;;4.13;;
10725;SDS011;5414;59.782;16.378;2023-02-08T02:10:34;14.30;;;4.13;;
10725;SDS011;5414;59.782;16.378;2023-02-08T02:13:02;10.77;;;3.50;;
10725;SDS011;5414;59.782;16.378;2023-02-08T02:15:28;10.37;;;3.93;;
10725;SDS011;5414;59.782;16.378;2023-02-08T02:17:54;9.27;;;3.50;;
10725;SDS011;5414;59.782;16.378;2023-02-08T02:25:32;8.90;;;3.87;;
10725;SDS011;5414;59.782;16.378;2023-02-08T02:33:52;9.07;;;3.70;;
10725;SDS011;5414;59.782;16.378;2023-02-08T02:39:22;11.53;;;3.73;;
10725;SDS011;5414;59.782;16.378;2023-02-08T02:44:57;11.87;;;4.03;;
10725;SDS011;5414;59.782;16.378;2023-02-08T02:47:43;15.07;;;4.53;;
10725;SDS011;5414;59.782;16.378;2023-02-08T02:55:40;12.70;;;4.00;;
10725;SDS011;5414;59.782;16.378;2023-02-08T02:58:07;13.90;;;3.97;;
10725;SDS011;5414;59.782;16.378;2023-02-08T03:00:35;8.37;;;3.63;;
10725;SDS011;5414;59.782;16.378;2023-02-08T03:03:01;8.97;;;3.50;;
10725;SDS011;5414;59.782;16.378;2023-02-08T03:05:27;9.27;;;3.73;;
10725;SDS011;5414;59.782;16.378;2023-02-08T03:10:42;9.10;;;4.00;;
10725;SDS011;5414;59.782;16.378;2023-02-08T03:13:15;10.60;;;3.70;;
10725;SDS011;5414;59.782;16.378;2023-02-08T03:21:19;12.50;;;3.60;;
10725;SDS011;5414;59.782;16.378;2023-02-08T03:23:58;6.90;;;3.20;;
10725;SDS011;5414;59.782;16.378;2023-02-08T03:26:31;10.10;;;3.03;;
10725;SDS011;5414;59.782;16.378;2023-02-08T03:29:04;9.33;;;2.73;;
10725;SDS011;5414;59.782;16.378;2023-02-08T03:31:34;9.57;;;3.70;;
10725;SDS011;5414;59.782;16.378;2023-02-08T03:34:27;9.10;;;3.40;;
10725;SDS011;5414;59.782;16.378;2023-02-08T03:36:54;11.40;;;3.17;;
10725;SDS011;5414;59.782;16.378;2023-02-08T03:39:22;7.07;;;3.10;;
10725;SDS011;5414;59.782;16.378;2023-02-08T03:41:49;6.70;;;2.90;;
10725;SDS011;5414;59.782;16.378;2023-02-08T03:47:30;6.77;;;3.30;;
10725;SDS011;5414;59.782;16.378;2023-02-08T03:49:32;8.43;;;3.07;;
10725;SDS011;5414;59.782;16.378;2023-02-08T03:51:59;6.53;;;2.63;;
10725;SDS011;5414;59.782;16.378;2023-02-08T03:54:27;7.50;;;2.87;;
10725;SDS011;5414;59.782;16.378;2023-02-08T03:57:03;5.90;;;2.67;;
10725;SDS011;5414;59.782;16.378;2023-02-08T03:59:31;8.43;;;2.87;;
10725;SDS011;5414;59.782;16.378;2023-02-08T04:02:00;7.20;;;2.60;;
10725;SDS011;5414;59.782;16.378;2023-02-08T04:04:34;6.53;;;3.43;;
10725;SDS011;5414;59.782;16.378;2023-02-08T04:07:03;6.80;;;2.50;;
10725;SDS011;5414;59.782;16.378;2023-02-08T04:09:29;7.00;;;2.60;;
10725;SDS011;5414;59.782;16.378;2023-02-08T04:11:55;7.43;;;2.87;;
10725;SDS011;5414;59.782;16.378;2023-02-08T04:14:21;6.73;;;2.60;;
10725;SDS011;5414;59.782;16.378;2023-02-08T04:16:47;6.93;;;2.60;;
10725;SDS011;5414;59.782;16.378;2023-02-08T04:19:13;7.30;;;2.70;;
10725;SDS011;5414;59.782;16.378;2023-02-08T04:21:39;7.13;;;2.90;;
10725;SDS011;5414;59.782;16.378;2023-02-08T04:24:05;7.70;;;3.13;;
10725;SDS011;5414;59.782;16.378;2023-02-08T04:26:31;7.47;;;2.80;;
10725;SDS011;5414;59.782;16.378;2023-02-08T04:28:57;7.33;;;3.23;;
10725;SDS011;5414;59.782;16.378;2023-02-08T04:31:23;8.90;;;2.83;;
10725;SDS011;5414;59.782;16.378;2023-02-08T04:33:49;5.57;;;2.47;;
10725;SDS011;5414;59.782;16.378;2023-02-08T04:36:15;5.87;;;2.43;;
10725;SDS011;5414;59.782;16.378;2023-02-08T04:38:42;7.10;;;2.70;;
10725;SDS011;5414;59.782;16.378;2023-02-08T04:41:08;4.77;;;2.37;;
10725;SDS011;5414;59.782;16.378;2023-02-08T04:43:34;7.03;;;2.93;;
10725;SDS011;5414;59.782;16.378;2023-02-08T04:46:00;8.03;;;2.80;;
10725;SDS011;5414;59.782;16.378;2023-02-08T04:48:26;6.30;;;2.47;;
10725;SDS011;5414;59.782;16.378;2023-02-08T04:50:57;6.03;;;2.30;;
10725;SDS011;5414;59.782;16.378;2023-02-08T04:53:24;4.83;;;2.07;;
10725;SDS011;5414;59.782;16.378;2023-02-08T04:55:51;6.47;;;3.03;;
10725;SDS011;5414;59.782;16.378;2023-02-08T04:58:17;5.97;;;2.60;;
10725;SDS011;5414;59.782;16.378;2023-02-08T05:00:44;8.67;;;2.20;;
10725;SDS011;5414;59.782;16.378;2023-02-08T05:03:10;8.87;;;2.93;;
10725;SDS011;5414;59.782;16.378;2023-02-08T05:05:37;6.10;;;2.67;;
10725;SDS011;5414;59.782;16.378;2023-02-08T05:08:03;7.00;;;2.93;;
10725;SDS011;5414;59.782;16.378;2023-02-08T05:10:29;10.83;;;2.83;;
10725;SDS011;5414;59.782;16.378;2023-02-08T05:12:55;5.63;;;2.30;;
10725;SDS011;5414;59.782;16.378;2023-02-08T05:15:21;6.93;;;2.53;;
10725;SDS011;5414;59.782;16.378;2023-02-08T05:17:47;6.10;;;2.60;;
10725;SDS011;5414;59.782;16.378;2023-02-08T05:20:13;6.60;;;2.37;;
10725;SDS011;5414;59.782;16.378;2023-02-08T05:22:39;8.20;;;2.70;;
10725;SDS011;5414;59.782;16.378;2023-02-08T05:25:06;6.30;;;2.37;;
10725;SDS011;5414;59.782;16.378;2023-02-08T05:27:33;6.53;;;2.60;;
10725;SDS011;5414;59.782;16.378;2023-02-08T05:29:59;7.57;;;2.77;;
10725;SDS011;5414;59.782;16.378;2023-02-08T05:32:26;5.87;;;2.57;;
10725;SDS011;5414;59.782;16.378;2023-02-08T05:34:52;7.20;;;2.57;;
10725;SDS011;5414;59.782;16.378;2023-02-08T05:37:18;5.80;;;2.53;;
10725;SDS011;5414;59.782;16.378;2023-02-08T05:39:44;7.20;;;2.73;;
10725;SDS011;5414;59.782;16.378;2023-02-08T05:42:10;7.43;;;2.50;;
10725;SDS011;5414;59.782;16.378;2023-02-08T05:44:36;5.77;;;2.50;;
10725;SDS011;5414;59.782;16.378;2023-02-08T05:47:02;7.47;;;2.90;;
10725;SDS011;5414;59.782;16.378;2023-02-08T05:49:28;6.63;;;2.50;;
10725;SDS011;5414;59.782;16.378;2023-02-08T05:51:54;6.23;;;2.77;;
10725;SDS011;5414;59.782;16.378;2023-02-08T05:54:20;6.83;;;2.73;;
10725;SDS011;5414;59.782;16.378;2023-02-08T05:56:46;6.30;;;2.90;;
10725;SDS011;5414;59.782;16.378;2023-02-08T05:59:12;6.70;;;2.60;;
10725;SDS011;5414;59.782;16.378;2023-02-08T06:01:38;6.27;;;2.80;;
10725;SDS011;5414;59.782;16.378;2023-02-08T06:04:04;6.20;;;2.50;;
10725;SDS011;5414;59.782;16.378;2023-02-08T06:06:30;6.93;;;2.87;;
10725;SDS011;5414;59.782;16.378;2023-02-08T06:08:56;7.10;;;2.67;;
10725;SDS011;5414;59.782;16.378;2023-02-08T06:11:22;7.53;;;2.93;;
10725;SDS011;5414;59.782;16.378;2023-02-08T06:13:48;5.20;;;2.73;;
10725;SDS011;5414;59.782;16.378;2023-02-08T06:16:14;8.30;;;3.17;;
10725;SDS011;5414;59.782;16.378;2023-02-08T06:18:40;6.90;;;3.17;;
10725;SDS011;5414;59.782;16.378;2023-02-08T06:21:08;8.27;;;3.20;;
10725;SDS011;5414;59.782;16.378;2023-02-08T06:23:34;8.07;;;3.20;;
10725;SDS011;5414;59.782;16.378;2023-02-08T06:26:00;9.47;;;3.17;;
10725;SDS011;5414;59.782;16.378;2023-02-08T06:28:28;7.70;;;3.43;;
10725;SDS011;5414;59.782;16.378;2023-02-08T06:30:54;5.30;;;3.23;;
10725;SDS011;5414;59.782;16.378;2023-02-08T06:33:20;7.57;;;3.80;;
10725;SDS011;5414;59.782;16.378;2023-02-08T06:35:46;6.20;;;3.53;;
10725;SDS011;5414;59.782;16.378;2023-02-08T06:38:13;8.73;;;3.47;;
10725;SDS011;5414;59.782;16.378;2023-02-08T06:40:39;7.57;;;3.23;;
10725;SDS011;5414;59.782;16.378;2023-02-08T06:43:05;4.77;;;3.03;;
10725;SDS011;5414;59.782;16.378;2023-02-08T06:45:31;7.23;;;3.90;;
10725;SDS011;5414;59.782;16.378;2023-02-08T06:47:57;6.83;;;3.20;;
10725;SDS011;5414;59.782;16.378;2023-02-08T06:50:24;5.90;;;3.30;;
10725;SDS011;5414;59.782;16.378;2023-02-08T06:52:51;7.87;;;3.20;;
10725;SDS011;5414;59.782;16.378;2023-02-08T06:55:17;5.77;;;3.27;;
10725;SDS011;5414;59.782;16.378;2023-02-08T06:57:43;7.53;;;3.40;;
10725;SDS011;5414;59.782;16.378;2023-02-08T07:00:09;5.43;;;3.37;;
10725;SDS011;5414;59.782;16.378;2023-02-08T07:02:35;5.13;;;3.40;;
10725;SDS011;5414;59.782;16.378;2023-02-08T07:05:01;6.57;;;3.07;;
10725;SDS011;5414;59.782;16.378;2023-02-08T07:07:28;5.53;;;3.40;;
10725;SDS011;5414;59.782;16.378;2023-02-08T07:09:54;5.87;;;3.20;;
10725;SDS011;5414;59.782;16.378;2023-02-08T07:12:21;6.10;;;3.30;;
10725;SDS011;5414;59.782;16.378;2023-02-08T07:14:47;5.83;;;3.20;;
10725;SDS011;5414;59.782;16.378;2023-02-08T07:17:13;5.97;;;3.60;;
10725;SDS011;5414;59.782;16.378;2023-02-08T07:19:39;9.43;;;3.70;;
10725;SDS011;5414;59.782;16.378;2023-02-08T07:22:05;4.70;;;3.20;;
10725;SDS011;5414;59.782;16.378;2023-02-08T07:24:39;6.67;;;3.27;;
10725;SDS011;5414;59.782;16.378;2023-02-08T07:27:06;6.47;;;3.60;;
10725;SDS011;5414;59.782;16.378;2023-02-08T07:29:32;8.93;;;3.40;;
10725;SDS011;5414;59.782;16.378;2023-02-08T07:31:59;5.10;;;2.97;;
10725;SDS011;5414;59.782;16.378;2023-02-08T07:34:27;5.60;;;3.43;;
10725;SDS011;5414;59.782;16.378;2023-02-08T07:36:53;6.83;;;3.37;;
10725;SDS011;5414;59.782;16.378;2023-02-08T07:39:20;9.03;;;3.50;;
10725;SDS011;5414;59.782;16.378;2023-02-08T07:41:46;8.40;;;3.30;;
10725;SDS011;5414;59.782;16.378;2023-02-08T07:44:13;5.67;;;3.30;;
10725;SDS011;5414;59.782;16.378;2023-02-08T07:46:39;6.50;;;3.33;;
10725;SDS011;5414;59.782;16.378;2023-02-08T07:49:05;8.57;;;3.57;;
10725;SDS011;5414;59.782;16.378;2023-02-08T07:51:31;5.30;;;2.83;;
10725;SDS011;5414;59.782;16.378;2023-02-08T07:53:57;8.83;;;3.20;;
10725;SDS011;5414;59.782;16.378;2023-02-08T07:56:23;5.00;;;3.17;;
10725;SDS011;5414;59.782;16.378;2023-02-08T07:58:50;6.10;;;3.17;;
10725;SDS011;5414;59.782;16.378;2023-02-08T08:01:16;5.43;;;2.70;;
10725;SDS011;5414;59.782;16.378;2023-02-08T08:03:42;5.53;;;2.53;;
10725;SDS011;5414;59.782;16.378;2023-02-08T08:06:08;5.83;;;3.00;;
10725;SDS011;5414;59.782;16.378;2023-02-08T08:08:34;5.10;;;2.90;;
10725;SDS011;5414;59.782;16.378;2023-02-08T08:11:00;6.17;;;3.10;;
10725;SDS011;5414;59.782;16.378;2023-02-08T08:13:26;5.43;;;2.87;;
10725;SDS011;5414;59.782;16.378;2023-02-08T08:15:52;6.03;;;2.50;;
10725;SDS011;5414;59.782;16.378;2023-02-08T08:18:18;6.53;;;3.10;;
10725;SDS011;5414;59.782;16.378;2023-02-08T08:20:44;4.07;;;2.27;;
10725;SDS011;5414;59.782;16.378;2023-02-08T08:23:10;7.07;;;3.17;;
10725;SDS011;5414;59.782;16.378;2023-02-08T08:25:36;6.50;;;2.87;;
10725;SDS011;5414;59.782;16.378;2023-02-08T08:28:03;7.43;;;3.50;;
10725;SDS011;5414;59.782;16.378;2023-02-08T08:30:29;5.27;;;3.20;;
10725;SDS011;5414;59.782;16.378;2023-02-08T08:32:55;7.23;;;3.07;;
10725;SDS011;5414;59.782;16.378;2023-02-08T08:35:21;7.43;;;2.83;;
10725;SDS011;5414;59.782;16.378;2023-02-08T08:37:49;6.20;;;2.47;;
10725;SDS011;5414;59.782;16.378;2023-02-08T08:40:15;6.50;;;3.00;;
10725;SDS011;5414;59.782;16.378;2023-02-08T08:42:41;7.00;;;3.17;;
10725;SDS011;5414;59.782;16.378;2023-02-08T08:45:07;7.30;;;3.10;;
10725;SDS011;5414;59.782;16.378;2023-02-08T08:47:33;5.10;;;2.80;;
10725;SDS011;5414;59.782;16.378;2023-02-08T08:49:59;7.63;;;3.10;;
10725;SDS011;5414;59.782;16.378;2023-02-08T08:52:25;7.23;;;3.00;;
10725;SDS011;5414;59.782;16.378;2023-02-08T08:54:51;5.73;;;3.00;;
10725;SDS011;5414;59.782;16.378;2023-02-08T08:57:17;5.77;;;2.90;;
10725;SDS011;5414;59.782;16.378;2023-02-08T08:59:43;8.40;;;3.47;;
10725;SDS011;5414;59.782;16.378;2023-02-08T09:02:11;6.50;;;3.00;;
10725;SDS011;5414;59.782;16.378;2023-02-08T09:04:37;6.83;;;3.60;;
10725;SDS011;5414;59.782;16.378;2023-02-08T09:07:05;5.27;;;2.70;;
10725;SDS011;5414;59.782;16.378;2023-02-08T09:09:31;9.57;;;2.90;;
10725;SDS011;5414;59.782;16.378;2023-02-08T09:11:58;7.23;;;2.67;;
10725;SDS011;5414;59.782;16.378;2023-02-08T09:14:24;6.23;;;3.10;;
10725;SDS011;5414;59.782;16.378;2023-02-08T09:16:50;5.00;;;2.60;;
10725;SDS011;5414;59.782;16.378;2023-02-08T09:19:17;5.13;;;2.70;;
10725;SDS011;5414;59.782;16.378;2023-02-08T09:21:44;6.33;;;2.40;;
10725;SDS011;5414;59.782;16.378;2023-02-08T09:24:10;8.13;;;2.60;;
10725;SDS011;5414;59.782;16.378;2023-02-08T09:26:37;5.67;;;2.60;;
10725;SDS011;5414;59.782;16.378;2023-02-08T09:29:03;6.93;;;2.90;;
10725;SDS011;5414;59.782;16.378;2023-02-08T09:31:30;6.50;;;2.43;;
10725;SDS011;5414;59.782;16.378;2023-02-08T09:33:58;5.97;;;2.80;;
10725;SDS011;5414;59.782;16.378;2023-02-08T09:36:25;8.47;;;3.13;;
10725;SDS011;5414;59.782;16.378;2023-02-08T09:38:53;5.63;;;2.50;;
10725;SDS011;5414;59.782;16.378;2023-02-08T09:44:12;5.30;;;2.67;;
10725;SDS011;5414;59.782;16.378;2023-02-08T09:46:40;6.70;;;2.40;;
10725;SDS011;5414;59.782;16.378;2023-02-08T09:49:09;3.47;;;2.03;;
10725;SDS011;5414;59.782;16.378;2023-02-08T09:51:36;6.33;;;2.20;;
10725;SDS011;5414;59.782;16.378;2023-02-08T09:54:22;5.70;;;2.23;;
10725;SDS011;5414;59.782;16.378;2023-02-08T09:56:48;6.40;;;2.67;;
10725;SDS011;5414;59.782;16.378;2023-02-08T09:59:17;2.97;;;1.70;;
10725;SDS011;5414;59.782;16.378;2023-02-08T10:01:44;3.37;;;1.73;;
10725;SDS011;5414;59.782;16.378;2023-02-08T10:06:57;4.87;;;2.00;;
10725;SDS011;5414;59.782;16.378;2023-02-08T10:09:26;3.37;;;1.60;;
10725;SDS011;5414;59.782;16.378;2023-02-08T10:11:56;4.90;;;1.97;;
10725;SDS011;5414;59.782;16.378;2023-02-08T10:17:02;5.83;;;2.00;;
10725;SDS011;5414;59.782;16.378;2023-02-08T10:19:49;4.43;;;2.07;;
10725;SDS011;5414;59.782;16.378;2023-02-08T10:27:23;2.90;;;1.53;;
10725;SDS011;5414;59.782;16.378;2023-02-08T10:35:24;6.30;;;1.70;;
10725;SDS011;5414;59.782;16.378;2023-02-08T10:37:50;4.13;;;1.80;;
10725;SDS011;5414;59.782;16.378;2023-02-08T10:42:47;4.33;;;1.90;;
10725;SDS011;5414;59.782;16.378;2023-02-08T10:47:43;3.90;;;1.83;;
10725;SDS011;5414;59.782;16.378;2023-02-08T10:52:43;7.63;;;2.17;;
10725;SDS011;5414;59.782;16.378;2023-02-08T10:55:12;8.50;;;2.33;;
10725;SDS011;5414;59.782;16.378;2023-02-08T10:57:39;5.20;;;2.03;;
10725;SDS011;5414;59.782;16.378;2023-02-08T11:00:06;4.23;;;2.00;;
10725;SDS011;5414;59.782;16.378;2023-02-08T11:02:34;4.23;;;2.00;;
10725;SDS011;5414;59.782;16.378;2023-02-08T11:05:05;5.33;;;2.00;;
10725;SDS011;5414;59.782;16.378;2023-02-08T11:07:32;5.30;;;2.30;;
10725;SDS011;5414;59.782;16.378;2023-02-08T11:12:40;5.60;;;2.20;;
10725;SDS011;5414;59.782;16.378;2023-02-08T11:15:19;5.53;;;2.27;;
10725;SDS011;5414;59.782;16.378;2023-02-08T11:17:46;7.90;;;2.40;;
10725;SDS011;5414;59.782;16.378;2023-02-08T11:20:21;5.60;;;2.40;;
10725;SDS011;5414;59.782;16.378;2023-02-08T11:22:49;5.20;;;2.10;;
10725;SDS011;5414;59.782;16.378;2023-02-08T11:28:24;5.73;;;2.20;;
10725;SDS011;5414;59.782;16.378;2023-02-08T11:30:55;5.67;;;2.10;;
10725;SDS011;5414;59.782;16.378;2023-02-08T11:33:22;5.77;;;2.20;;
10725;SDS011;5414;59.782;16.378;2023-02-08T11:36:00;6.43;;;2.13;;
10725;SDS011;5414;59.782;16.378;2023-02-08T11:38:27;5.37;;;2.50;;
10725;SDS011;5414;59.782;16.378;2023-02-08T11:40:55;5.43;;;2.27;;
10725;SDS011;5414;59.782;16.378;2023-02-08T11:43:26;4.20;;;2.07;;
10725;SDS011;5414;59.782;16.378;2023-02-08T11:45:53;9.20;;;2.37;;
10725;SDS011;5414;59.782;16.378;2023-02-08T11:48:24;5.80;;;2.03;;
10725;SDS011;5414;59.782;16.378;2023-02-08T11:50:54;4.73;;;1.90;;
10725;SDS011;5414;59.782;16.378;2023-02-08T11:53:24;8.53;;;2.30;;
10725;SDS011;5414;59.782;16.378;2023-02-08T11:58:27;5.13;;;2.17;;
10725;SDS011;5414;59.782;16.378;2023-02-08T12:01:00;4.40;;;2.00;;
10725;SDS011;5414;59.782;16.378;2023-02-08T12:03:28;4.70;;;2.00;;
10725;SDS011;5414;59.782;16.378;2023-02-08T12:13:41;5.47;;;2.17;;
10725;SDS011;5414;59.782;16.378;2023-02-08T12:24:23;5.47;;;2.23;;
10725;SDS011;5414;59.782;16.378;2023-02-08T12:29:32;3.63;;;2.03;;
10725;SDS011;5414;59.782;16.378;2023-02-08T12:51:19;5.47;;;2.00;;
10725;SDS011;5414;59.782;16.378;2023-02-08T12:53:50;6.47;;;2.37;;
10725;SDS011;5414;59.782;16.378;2023-02-08T12:56:18;7.07;;;2.47;;
10725;SDS011;5414;59.782;16.378;2023-02-08T12:58:46;7.00;;;2.43;;
10725;SDS011;5414;59.782;16.378;2023-02-08T13:06:12;7.40;;;2.00;;
10725;SDS011;5414;59.782;16.378;2023-02-08T13:08:49;5.30;;;1.83;;
10725;SDS011;5414;59.782;16.378;2023-02-08T13:14:07;5.57;;;2.07;;
10725;SDS011;5414;59.782;16.378;2023-02-08T13:16:44;4.77;;;2.00;;
10725;SDS011;5414;59.782;16.378;2023-02-08T13:21:43;6.27;;;2.00;;
10725;SDS011;5414;59.782;16.378;2023-02-08T13:24:14;5.57;;;1.93;;
10725;SDS011;5414;59.782;16.378;2023-02-08T13:26:41;5.63;;;1.80;;
10725;SDS011;5414;59.782;16.378;2023-02-08T13:29:13;5.17;;;2.07;;
10725;SDS011;5414;59.782;16.378;2023-02-08T13:31:40;4.50;;;1.90;;
10725;SDS011;5414;59.782;16.378;2023-02-08T13:36:48;4.03;;;1.80;;
10725;SDS011;5414;59.782;16.378;2023-02-08T13:39:26;3.80;;;1.93;;
10725;SDS011;5414;59.782;16.378;2023-02-08T13:41:55;5.77;;;2.17;;
10725;SDS011;5414;59.782;16.378;2023-02-08T13:44:31;4.40;;;1.80;;
10725;SDS011;5414;59.782;16.378;2023-02-08T13:46:58;4.63;;;1.97;;
10725;SDS011;5414;59.782;16.378;2023-02-08T13:52:10;6.07;;;2.03;;
10725;SDS011;5414;59.782;16.378;2023-02-08T13:54:37;4.50;;;2.23;;
10725;SDS011;5414;59.782;16.378;2023-02-08T13:57:04;4.17;;;2.53;;
10725;SDS011;5414;59.782;16.378;2023-02-08T14:00:12;3.87;;;2.10;;
10725;SDS011;5414;59.782;16.378;2023-02-08T14:02:34;6.13;;;2.70;;
10725;SDS011;5414;59.782;16.378;2023-02-08T14:05:45;5.80;;;2.70;;
10725;SDS011;5414;59.782;16.378;2023-02-08T14:07:50;6.47;;;2.87;;
10725;SDS011;5414;59.782;16.378;2023-02-08T14:17:44;5.23;;;3.10;;
10725;SDS011;5414;59.782;16.378;2023-02-08T14:20:16;6.53;;;2.90;;
10725;SDS011;5414;59.782;16.378;2023-02-08T14:22:49;6.97;;;3.30;;
10725;SDS011;5414;59.782;16.378;2023-02-08T14:25:17;9.17;;;3.53;;
10725;SDS011;5414;59.782;16.378;2023-02-08T14:32:46;5.67;;;3.30;;
10725;SDS011;5414;59.782;16.378;2023-02-08T14:35:17;6.20;;;3.80;;
10725;SDS011;5414;59.782;16.378;2023-02-08T14:37:44;6.30;;;3.20;;
10725;SDS011;5414;59.782;16.378;2023-02-08T14:42:54;8.03;;;3.73;;
10725;SDS011;5414;59.782;16.378;2023-02-08T14:47:53;5.50;;;3.70;;
10725;SDS011;5414;59.782;16.378;2023-02-08T14:50:21;7.73;;;3.77;;
10725;SDS011;5414;59.782;16.378;2023-02-08T14:52:51;6.40;;;3.73;;
10725;SDS011;5414;59.782;16.378;2023-02-08T14:55:22;4.83;;;3.80;;
10725;SDS011;5414;59.782;16.378;2023-02-08T14:57:52;6.87;;;4.00;;
10725;SDS011;5414;59.782;16.378;2023-02-08T15:00:21;5.47;;;3.53;;
10725;SDS011;5414;59.782;16.378;2023-02-08T15:02:47;7.43;;;3.70;;
10725;SDS011;5414;59.782;16.378;2023-02-08T15:05:21;6.73;;;3.70;;
10725;SDS011;5414;59.782;16.378;2023-02-08T15:07:54;5.93;;;3.57;;
10725;SDS011;5414;59.782;16.378;2023-02-08T15:10:22;6.03;;;3.20;;
10725;SDS011;5414;59.782;16.378;2023-02-08T15:12:53;5.73;;;3.50;;
10725;SDS011;5414;59.782;16.378;2023-02-08T15:15:27;5.27;;;3.30;;
10725;SDS011;5414;59.782;16.378;2023-02-08T15:17:54;6.30;;;3.60;;
10725;SDS011;5414;59.782;16.378;2023-02-08T15:20:27;5.37;;;3.67;;
10725;SDS011;5414;59.782;16.378;2023-02-08T15:22:57;5.93;;;3.43;;
10725;SDS011;5414;59.782;16.378;2023-02-08T15:27:52;6.97;;;3.53;;
10725;SDS011;5414;59.782;16.378;2023-02-08T15:30:29;4.50;;;3.27;;
10725;SDS011;5414;59.782;16.378;2023-02-08T15:32:56;4.87;;;3.73;;
10725;SDS011;5414;59.782;16.378;2023-02-08T15:35:23;7.40;;;3.80;;
10725;SDS011;5414;59.782;16.378;2023-02-08T15:37:50;5.33;;;3.50;;
10725;SDS011;5414;59.782;16.378;2023-02-08T15:40:27;6.40;;;3.50;;
10725;SDS011;5414;59.782;16.378;2023-02-08T15:42:55;7.33;;;4.07;;
10725;SDS011;5414;59.782;16.378;2023-02-08T15:45:34;5.70;;;3.57;;
10725;SDS011;5414;59.782;16.378;2023-02-08T15:48:20;6.20;;;3.43;;
10725;SDS011;5414;59.782;16.378;2023-02-08T15:50:49;5.93;;;3.57;;
10725;SDS011;5414;59.782;16.378;2023-02-08T15:53:18;4.10;;;3.67;;
10725;SDS011;5414;59.782;16.378;2023-02-08T15:55:48;5.50;;;3.80;;
10725;SDS011;5414;59.782;16.378;2023-02-08T15:58:37;5.33;;;3.90;;
10725;SDS011;5414;59.782;16.378;2023-02-08T16:01:04;4.33;;;3.93;;
10725;SDS011;5414;59.782;16.378;2023-02-08T16:03:31;4.53;;;3.77;;
10725;SDS011;5414;59.782;16.378;2023-02-08T16:05:59;5.43;;;3.47;;
10725;SDS011;5414;59.782;16.378;2023-02-08T16:08:27;4.50;;;3.97;;
10725;SDS011;5414;59.782;16.378;2023-02-08T16:11:19;6.00;;;4.10;;
10725;SDS011;5414;59.782;16.378;2023-02-08T16:13:44;7.23;;;4.20;;
10725;SDS011;5414;59.782;16.378;2023-02-08T16:16:19;5.50;;;4.37;;
10725;SDS011;5414;59.782;16.378;2023-02-08T16:18:57;7.07;;;4.20;;
10725;SDS011;5414;59.782;16.378;2023-02-08T16:26:20;5.77;;;4.03;;
10725;SDS011;5414;59.782;16.378;2023-02-08T16:28:51;5.83;;;4.20;;
10725;SDS011;5414;59.782;16.378;2023-02-08T16:31:21;4.63;;;4.10;;
10725;SDS011;5414;59.782;16.378;2023-02-08T16:33:57;5.07;;;4.07;;
10725;SDS011;5414;59.782;16.378;2023-02-08T16:36:24;5.43;;;4.30;;
10725;SDS011;5414;59.782;16.378;2023-02-08T16:44:26;6.43;;;4.60;;
10725;SDS011;5414;59.782;16.378;2023-02-08T16:46:53;7.50;;;5.27;;
10725;SDS011;5414;59.782;16.378;2023-02-08T16:49:19;6.77;;;5.17;;
10725;SDS011;5414;59.782;16.378;2023-02-08T16:51:45;7.57;;;5.63;;
10725;SDS011;5414;59.782;16.378;2023-02-08T16:54:12;6.67;;;5.23;;
10725;SDS011;5414;59.782;16.378;2023-02-08T16:56:39;6.53;;;5.40;;
10725;SDS011;5414;59.782;16.378;2023-02-08T16:59:06;7.73;;;5.63;;
10725;SDS011;5414;59.782;16.378;2023-02-08T17:01:32;7.67;;;5.73;;
10725;SDS011;5414;59.782;16.378;2023-02-08T17:03:59;7.07;;;5.83;;
10725;SDS011;5414;59.782;16.378;2023-02-08T17:08:54;9.43;;;6.57;;
10725;SDS011;5414;59.782;16.378;2023-02-08T17:11:20;7.73;;;5.87;;
10725;SDS011;5414;59.782;16.378;2023-02-08T17:13:46;9.80;;;6.47;;
10725;SDS011;5414;59.782;16.378;2023-02-08T17:16:17;6.93;;;5.50;;
10725;SDS011;5414;59.782;16.378;2023-02-08T17:18:44;7.97;;;6.90;;
10725;SDS011;5414;59.782;16.378;2023-02-08T17:21:10;8.73;;;6.47;;
10725;SDS011;5414;59.782;16.378;2023-02-08T17:23:36;11.47;;;7.17;;
10725;SDS011;5414;59.782;16.378;2023-02-08T17:26:03;8.10;;;6.63;;